Time;durP1;ratioP1;P1;durP2;ratioP2;P2;SDS_P1;SDS_P2;PMS_P1;PMS_P2;Temp;Humidity;BMP_temperature;BMP_pressure;BME280_temperature;BME280_humidity;BME280_pressure;Samples;Min_cycle;Max_cycle;Signal;HPM_P1;HPM_P2
2021/04/25 00:02:14;;;;;;;6.38;1.70;;;4.40;96.10;;;;;;5016105;28;20029;-79
2021/04/25 00:04:39;;;;;;;3.05;1.50;;;4.40;97.00;;;;;;5020032;28;20025;-80
2021/04/25 00:07:05;;;;;;;3.08;1.63;;;4.40;96.80;;;;;;5027536;28;20030;-79
2021/04/25 00:09:31;;;;;;;3.72;2.10;;;4.40;96.90;;;;;;5024666;28;20030;-79
2021/04/25 00:11:57;;;;;;;3.47;1.63;;;4.30;97.60;;;;;;5019581;28;20068;-80
2021/04/25 00:14:23;;;;;;;2.78;1.55;;;4.40;97.20;;;;;;5015060;28;20045;-79
2021/04/25 00:16:48;;;;;;;3.47;1.27;;;4.50;96.80;;;;;;5016238;28;20091;-80
2021/04/25 00:19:14;;;;;;;1.48;1.38;;;4.60;95.40;;;;;;5024514;28;20025;-80
2021/04/25 00:21:39;;;;;;;2.22;1.80;;;4.60;96.40;;;;;;5017353;28;20079;-80
2021/04/25 00:24:05;;;;;;;4.70;1.80;;;4.60;96.10;;;;;;5016280;28;20116;-79
2021/04/25 00:26:31;;;;;;;4.50;2.17;;;4.60;96.10;;;;;;5020439;28;20029;-79
2021/04/25 00:28:56;;;;;;;3.17;1.70;;;4.50;96.10;;;;;;5023664;28;20025;-79
2021/04/25 00:31:22;;;;;;;3.83;1.73;;;4.60;97.30;;;;;;5019910;28;20438;-79
2021/04/25 00:33:47;;;;;;;10.40;2.15;;;4.60;96.80;;;;;;5026185;28;20429;-79
2021/04/25 00:36:13;;;;;;;2.95;1.67;;;4.60;97.50;;;;;;5021900;28;20112;-79
2021/04/25 00:38:39;;;;;;;4.43;1.58;;;4.70;97.10;;;;;;5013596;28;20129;-80
2021/04/25 00:41:06;;;;;;;3.22;1.30;;;4.70;96.60;;;;;;5019926;28;20194;-80
2021/04/25 00:43:32;;;;;;;2.03;1.45;;;4.70;97.30;;;;;;5028775;28;20040;-79
2021/04/25 00:45:57;;;;;;;8.05;1.85;;;4.60;97.00;;;;;;5018352;28;20041;-79
2021/04/25 00:48:23;;;;;;;7.32;2.25;;;4.70;98.30;;;;;;5024149;28;20026;-79
2021/04/25 00:50:49;;;;;;;3.55;1.88;;;4.70;98.40;;;;;;5019879;28;20042;-79
2021/04/25 00:53:14;;;;;;;5.38;1.60;;;4.80;98.40;;;;;;5023958;28;20018;-80
2021/04/25 00:55:40;;;;;;;3.47;1.77;;;4.70;98.10;;;;;;5020348;28;20033;-79
2021/04/25 00:58:06;;;;;;;5.10;2.38;;;4.80;97.60;;;;;;5016968;28;20030;-80
2021/04/25 01:00:33;;;;;;;9.05;2.85;;;4.90;97.70;;;;;;5018201;28;20037;-80
2021/04/25 01:02:58;;;;;;;5.93;2.92;;;4.90;99.50;;;;;;5020056;28;20048;-80
2021/04/25 01:05:24;;;;;;;7.53;2.78;;;4.90;98.30;;;;;;5018398;28;20029;-80
2021/04/25 01:07:50;;;;;;;8.27;3.10;;;4.90;98.00;;;;;;5015495;28;20112;-79
2021/04/25 01:10:17;;;;;;;4.80;2.05;;;4.90;98.00;;;;;;5019881;28;20090;-79
2021/04/25 01:12:44;;;;;;;4.72;2.40;;;4.90;98.60;;;;;;5022213;28;20030;-80
2021/04/25 01:15:13;;;;;;;6.10;3.40;;;4.90;98.40;;;;;;5026892;28;20094;-80
2021/04/25 01:17:44;;;;;;;7.10;2.63;;;4.90;98.60;;;;;;5011205;28;20192;-80
2021/04/25 01:20:12;;;;;;;7.03;2.80;;;4.90;98.20;;;;;;5020417;28;20036;-80
2021/04/25 01:22:38;;;;;;;6.15;3.05;;;4.90;97.40;;;;;;5003282;28;20033;-80
2021/04/25 01:25:05;;;;;;;5.25;2.78;;;5.00;97.90;;;;;;5021523;28;20038;-79
2021/04/25 01:27:31;;;;;;;3.67;2.30;;;5.00;99.80;;;;;;5018181;28;20044;-79
2021/04/25 01:29:56;;;;;;;10.23;3.20;;;5.00;99.00;;;;;;5023023;28;20586;-79
2021/04/25 01:32:22;;;;;;;4.85;2.35;;;5.10;98.90;;;;;;5018857;28;20014;-79
2021/04/25 01:34:47;;;;;;;3.45;2.30;;;5.10;99.20;;;;;;5023522;28;20520;-79
2021/04/25 01:37:13;;;;;;;6.25;3.20;;;5.20;98.00;;;;;;5020945;28;20115;-78
2021/04/25 01:39:38;;;;;;;6.22;2.33;;;5.20;98.10;;;;;;5002156;28;20332;-79
2021/04/25 01:42:04;;;;;;;4.95;2.50;;;5.20;98.00;;;;;;5020302;28;20044;-79
2021/04/25 01:44:30;;;;;;;5.65;2.90;;;5.30;98.10;;;;;;5016837;28;20514;-79
2021/04/25 01:46:55;;;;;;;7.10;3.08;;;5.30;97.40;;;;;;5021102;28;20033;-79
2021/04/25 01:49:21;;;;;;;7.05;2.70;;;5.30;99.10;;;;;;5022827;28;20031;-79
2021/04/25 01:51:46;;;;;;;6.97;2.80;;;5.30;98.80;;;;;;5022442;28;20042;-79
2021/04/25 01:54:12;;;;;;;5.65;3.45;;;5.40;98.70;;;;;;5015559;28;20065;-78
2021/04/25 01:56:38;;;;;;;8.20;3.10;;;5.30;98.70;;;;;;5021441;28;20029;-78
2021/04/25 01:59:04;;;;;;;7.43;2.65;;;5.30;98.90;;;;;;5026514;28;20112;-78
2021/04/25 02:01:33;;;;;;;5.65;2.38;;;5.20;98.80;;;;;;5019472;28;20036;-79
2021/04/25 02:03:59;;;;;;;6.75;2.92;;;5.30;98.60;;;;;;5019695;28;20053;-79
2021/04/25 02:06:25;;;;;;;10.75;2.83;;;5.40;97.90;;;;;;5020434;28;20830;-79
2021/04/25 02:08:50;;;;;;;6.00;3.22;;;5.50;98.00;;;;;;5017987;28;20030;-78
2021/04/25 02:11:16;;;;;;;3.25;2.03;;;5.40;99.50;;;;;;5025593;28;20472;-79
2021/04/25 02:13:41;;;;;;;8.25;2.78;;;5.50;99.30;;;;;;5020158;28;20030;-79
2021/04/25 02:16:07;;;;;;;6.90;2.72;;;5.40;98.80;;;;;;5026498;28;20021;-79
2021/04/25 02:18:33;;;;;;;7.68;2.53;;;5.40;99.30;;;;;;5021142;28;20400;-79
2021/04/25 02:21:00;;;;;;;9.13;2.67;;;5.40;98.60;;;;;;5019708;28;20452;-78
2021/04/25 02:23:25;;;;;;;4.82;2.30;;;5.40;98.70;;;;;;5031249;28;20027;-78
2021/04/25 02:25:51;;;;;;;5.97;2.40;;;5.40;98.30;;;;;;5028208;28;20033;-78
2021/04/25 02:28:16;;;;;;;3.30;1.98;;;5.50;98.30;;;;;;5023443;28;20488;-79
2021/04/25 02:30:44;;;;;;;6.03;2.80;;;5.50;99.10;;;;;;5032679;28;20396;-78
2021/04/25 02:33:10;;;;;;;4.72;2.58;;;5.40;98.40;;;;;;5024663;28;20026;-78
2021/04/25 02:35:35;;;;;;;7.20;2.20;;;5.30;98.70;;;;;;5023277;28;21486;-78
2021/04/25 02:38:01;;;;;;;3.15;1.92;;;5.20;98.60;;;;;;5030008;28;20033;-78
2021/04/25 02:40:29;;;;;;;6.90;2.25;;;5.10;99.30;;;;;;5027666;28;20595;-78
2021/04/25 02:42:56;;;;;;;5.03;2.47;;;5.00;98.90;;;;;;5024310;28;20025;-78
2021/04/25 02:45:23;;;;;;;4.05;2.28;;;4.80;99.90;;;;;;5031661;28;20025;-79
2021/04/25 02:47:51;;;;;;;3.67;2.20;;;4.70;99.90;;;;;;5031763;28;20084;-79
2021/04/25 02:50:19;;;;;;;8.60;2.35;;;4.60;99.90;;;;;;5023646;28;20117;-78
2021/04/25 02:52:46;;;;;;;3.30;2.03;;;4.50;99.90;;;;;;5030826;28;20029;-79
2021/04/25 02:55:14;;;;;;;2.88;1.95;;;4.30;99.90;;;;;;5023287;28;20017;-79
2021/04/25 02:57:40;;;;;;;4.38;2.08;;;4.30;99.90;;;;;;5022406;28;20040;-78
2021/04/25 03:00:08;;;;;;;5.15;1.67;;;4.30;99.90;;;;;;5020424;28;20084;-78
2021/04/25 03:02:34;;;;;;;3.65;1.95;;;4.20;99.90;;;;;;5008396;28;20407;-78
2021/04/25 03:04:59;;;;;;;4.80;2.22;;;4.20;99.90;;;;;;5024678;28;20038;-78
2021/04/25 03:07:25;;;;;;;3.40;1.83;;;4.10;99.90;;;;;;5027766;28;20029;-79
2021/04/25 03:09:50;;;;;;;3.45;2.00;;;4.10;99.90;;;;;;5023325;28;20480;-79
2021/04/25 03:12:16;;;;;;;2.08;1.52;;;4.20;99.90;;;;;;5027072;28;20033;-78
2021/04/25 03:14:41;;;;;;;5.13;2.13;;;4.20;99.90;;;;;;5024807;28;20037;-79
2021/04/25 03:17:07;;;;;;;9.18;2.65;;;4.30;99.90;;;;;;5025705;28;20025;-79
2021/04/25 03:19:33;;;;;;;4.18;2.88;;;4.30;99.90;;;;;;5031011;28;20100;-79
2021/04/25 03:21:58;;;;;;;7.22;3.22;;;4.20;99.90;;;;;;5022008;28;20076;-79
2021/04/25 03:24:24;;;;;;;6.57;2.80;;;4.30;99.90;;;;;;5023288;28;20373;-79
2021/04/25 03:26:50;;;;;;;4.43;2.20;;;4.20;99.90;;;;;;5016379;28;20033;-78
2021/04/25 03:29:15;;;;;;;4.68;2.38;;;4.20;99.90;;;;;;5022866;28;20133;-78
2021/04/25 03:31:41;;;;;;;4.22;2.55;;;4.20;99.90;;;;;;5023434;28;20036;-78
2021/04/25 03:34:06;;;;;;;2.72;1.60;;;4.30;99.90;;;;;;5027751;28;20029;-78
2021/04/25 03:36:32;;;;;;;2.72;1.77;;;4.30;99.90;;;;;;5024042;28;20053;-78
2021/04/25 03:38:58;;;;;;;4.68;2.17;;;4.30;99.90;;;;;;5017807;28;20108;-78
2021/04/25 03:41:26;;;;;;;2.88;1.60;;;4.30;99.90;;;;;;5019155;28;20555;-78
2021/04/25 03:43:52;;;;;;;2.67;1.85;;;4.40;99.90;;;;;;5025326;28;20033;-78
2021/04/25 03:46:17;;;;;;;2.90;1.60;;;4.50;99.90;;;;;;5022256;28;20083;-78
2021/04/25 03:48:43;;;;;;;2.97;1.92;;;4.60;99.70;;;;;;5007404;28;20045;-78
2021/04/25 03:51:08;;;;;;;2.08;1.50;;;4.60;98.80;;;;;;5017948;28;20045;-78
2021/04/25 03:53:34;;;;;;;4.38;1.77;;;4.60;98.90;;;;;;5018905;28;20528;-78
2021/04/25 03:55:59;;;;;;;6.47;2.45;;;4.60;98.70;;;;;;5019654;28;20030;-78
2021/04/25 03:58:32;;;;;;;5.07;1.40;;;4.60;98.50;;;;;;5026668;28;20048;-78
2021/04/25 04:00:58;;;;;;;4.38;1.70;;;4.70;97.80;;;;;;5023752;28;20041;-78
2021/04/25 04:03:23;;;;;;;2.67;1.45;;;4.80;98.50;;;;;;5014586;28;20144;-78
2021/04/25 04:05:49;;;;;;;3.45;1.52;;;4.80;97.70;;;;;;5021585;28;20084;-78
2021/04/25 04:08:15;;;;;;;3.08;1.92;;;4.90;97.50;;;;;;5018492;28;20061;-78
2021/04/25 04:10:40;;;;;;;4.05;2.22;;;4.80;97.10;;;;;;5019023;28;20485;-78
2021/04/25 04:13:06;;;;;;;2.17;1.65;;;4.90;97.10;;;;;;5018138;28;20116;-78
2021/04/25 04:15:31;;;;;;;9.27;2.42;;;4.90;96.50;;;;;;5022035;28;20026;-78
2021/04/25 04:17:57;;;;;;;3.78;1.77;;;4.90;96.10;;;;;;5026265;28;20366;-78
2021/04/25 04:20:23;;;;;;;5.63;1.92;;;5.00;96.40;;;;;;5024715;28;20021;-78
2021/04/25 04:22:48;;;;;;;3.92;1.42;;;5.10;96.20;;;;;;4998241;28;20029;-78
2021/04/25 04:25:14;;;;;;;3.83;1.83;;;5.00;96.30;;;;;;5020520;28;20029;-78
2021/04/25 04:27:39;;;;;;;4.25;1.95;;;5.00;96.70;;;;;;5018427;28;20025;-78
2021/04/25 04:30:06;;;;;;;3.67;2.05;;;5.00;96.70;;;;;;5016072;28;20021;-78
2021/04/25 04:32:32;;;;;;;2.95;1.65;;;5.10;96.80;;;;;;5021103;28;20055;-78
2021/04/25 04:34:57;;;;;;;3.72;1.40;;;5.10;96.90;;;;;;5021694;28;20158;-76
2021/04/25 04:37:23;;;;;;;6.65;1.70;;;5.10;97.10;;;;;;5017480;28;20053;-76
2021/04/25 04:39:49;;;;;;;2.60;1.40;;;5.20;97.50;;;;;;5016145;28;20147;-76
2021/04/25 04:42:14;;;;;;;3.65;1.45;;;5.20;97.00;;;;;;5024659;28;20034;-77
2021/04/25 04:44:40;;;;;;;7.00;1.70;;;5.20;98.10;;;;;;5020816;28;20034;-76
2021/04/25 04:47:05;;;;;;;4.72;1.80;;;5.30;97.20;;;;;;5022866;28;20231;-77
2021/04/25 04:49:31;;;;;;;2.28;1.42;;;5.40;97.20;;;;;;5012062;28;20388;-75
2021/04/25 04:51:56;;;;;;;2.42;1.45;;;5.40;96.20;;;;;;5019455;28;20503;-77
2021/04/25 04:54:22;;;;;;;2.30;1.73;;;5.50;97.40;;;;;;5020336;28;20104;-80
2021/04/25 04:56:47;;;;;;;6.20;1.77;;;5.50;96.80;;;;;;5025391;28;20029;-79
2021/04/25 04:59:13;;;;;;;3.22;1.70;;;5.50;96.10;;;;;;5020394;28;20021;-82
2021/04/25 05:01:38;;;;;;;1.60;1.20;;;5.60;95.70;;;;;;5026896;28;20029;-82
2021/04/25 05:04:04;;;;;;;1.92;1.50;;;5.60;94.50;;;;;;5021873;28;20056;-83
2021/04/25 05:06:29;;;;;;;3.05;1.52;;;5.70;94.90;;;;;;5022069;28;20079;-82
2021/04/25 05:08:55;;;;;;;1.92;1.42;;;5.70;94.20;;;;;;5023452;28;20029;-82
2021/04/25 05:11:20;;;;;;;2.22;1.52;;;5.80;93.70;;;;;;5026215;28;20028;-83
2021/04/25 05:13:46;;;;;;;5.38;1.65;;;5.80;93.30;;;;;;5023720;28;20041;-83
2021/04/25 05:16:12;;;;;;;3.28;1.50;;;5.90;93.20;;;;;;5021294;28;20029;-83
2021/04/25 05:18:39;;;;;;;2.58;1.40;;;6.00;92.30;;;;;;5024372;28;20039;-82
2021/04/25 05:21:23;;;;;;;2.40;1.35;;;6.00;92.40;;;;;;5025224;28;20151;-82
2021/04/25 05:23:49;;;;;;;7.05;1.92;;;6.10;93.20;;;;;;5020050;28;20754;-82
2021/04/25 05:26:14;;;;;;;2.53;1.90;;;6.10;92.50;;;;;;5024424;28;20119;-83
2021/04/25 05:28:40;;;;;;;25.05;2.28;;;6.10;91.60;;;;;;5023534;28;20148;-82
2021/04/25 05:31:05;;;;;;;4.10;2.05;;;6.20;92.20;;;;;;5024652;28;20068;-82
2021/04/25 05:33:31;;;;;;;5.15;1.58;;;6.20;92.50;;;;;;5025257;28;20400;-82
2021/04/25 05:35:56;;;;;;;6.05;2.53;;;6.10;92.50;;;;;;5024840;28;20037;-82
2021/04/25 05:38:23;;;;;;;3.28;1.65;;;6.10;92.60;;;;;;5023335;28;20017;-81
2021/04/25 05:40:48;;;;;;;4.55;1.80;;;6.20;92.80;;;;;;5024519;28;20041;-81
2021/04/25 05:43:14;;;;;;;7.10;2.22;;;6.30;92.20;;;;;;5006191;28;20021;-82
2021/04/25 05:45:39;;;;;;;4.70;2.10;;;6.40;91.40;;;;;;5025252;28;20029;-81
2021/04/25 05:48:08;;;;;;;1.95;1.50;;;6.40;91.30;;;;;;5023707;28;20056;-81
2021/04/25 05:50:33;;;;;;;2.70;1.48;;;6.50;91.00;;;;;;5023746;28;20165;-81
2021/04/25 05:52:59;;;;;;;4.38;2.05;;;6.60;90.80;;;;;;5024838;28;20112;-81
2021/04/25 05:55:25;;;;;;;2.95;1.40;;;6.60;90.60;;;;;;5022328;28;20040;-81
2021/04/25 05:57:51;;;;;;;1.83;1.35;;;6.70;90.60;;;;;;5022706;28;20041;-81
2021/04/25 06:00:21;;;;;;;3.42;1.30;;;6.80;90.50;;;;;;5020519;28;20037;-81
2021/04/25 06:02:47;;;;;;;4.90;1.60;;;6.90;89.40;;;;;;5018739;28;20038;-81
2021/04/25 06:05:13;;;;;;;2.03;1.27;;;7.00;87.60;;;;;;5023797;28;20125;-82
2021/04/25 06:07:39;;;;;;;2.97;1.65;;;7.10;86.90;;;;;;5018400;28;20124;-81
2021/04/25 06:10:05;;;;;;;9.82;1.20;;;7.20;86.40;;;;;;5018457;28;20470;-83
2021/04/25 06:12:32;;;;;;;3.03;1.52;;;7.30;85.70;;;;;;5024027;28;20121;-77
2021/04/25 06:14:57;;;;;;;3.30;1.58;;;7.40;86.70;;;;;;5016210;28;20036;-76
2021/04/25 06:17:25;;;;;;;6.47;1.40;;;7.60;85.90;;;;;;5017516;28;20025;-76
2021/04/25 06:19:53;;;;;;;1.48;1.00;;;7.60;82.20;;;;;;5011306;28;20036;-77
2021/04/25 06:22:22;;;;;;;5.15;1.58;;;7.80;85.70;;;;;;5014620;28;20022;-78
2021/04/25 06:24:53;;;;;;;3.08;1.20;;;7.90;83.30;;;;;;5020409;28;20026;-79
2021/04/25 06:27:19;;;;;;;4.25;1.45;;;8.00;82.60;;;;;;5017205;28;20087;-77
2021/04/25 06:29:45;;;;;;;4.97;0.80;;;8.10;82.00;;;;;;5021898;28;20033;-77
2021/04/25 06:32:10;;;;;;;1.63;0.90;;;8.20;80.60;;;;;;5016098;28;20405;-79
2021/04/25 06:34:36;;;;;;;1.00;0.80;;;8.30;79.60;;;;;;5028903;28;20025;-78
2021/04/25 06:37:01;;;;;;;3.30;1.30;;;8.30;78.20;;;;;;5013304;28;20030;-78
2021/04/25 06:39:27;;;;;;;1.35;0.93;;;8.40;77.30;;;;;;5014628;28;20427;-81
2021/04/25 06:41:52;;;;;;;1.17;1.00;;;8.40;76.50;;;;;;5016925;28;20037;-80
2021/04/25 06:44:18;;;;;;;1.40;1.17;;;8.40;76.80;;;;;;5019869;28;20033;-81
2021/04/25 06:46:57;;;;;;;3.60;1.08;;;8.50;75.40;;;;;;5015209;28;20137;-81
2021/04/25 06:49:23;;;;;;;1.88;1.20;;;8.60;75.20;;;;;;5005915;28;20029;-81
2021/04/25 06:51:48;;;;;;;1.90;1.20;;;8.70;73.10;;;;;;5014587;28;20324;-80
2021/04/25 06:54:14;;;;;;;2.40;1.30;;;8.80;72.70;;;;;;5020905;28;20036;-80
2021/04/25 06:56:40;;;;;;;1.60;1.02;;;8.80;73.60;;;;;;5022245;28;20033;-80
2021/04/25 06:59:06;;;;;;;4.05;1.20;;;9.00;72.40;;;;;;5017539;28;20055;-76
2021/04/25 07:01:32;;;;;;;1.52;0.75;;;9.00;72.00;;;;;;5020597;28;20041;-77
2021/04/25 07:03:57;;;;;;;1.50;1.00;;;9.00;71.50;;;;;;5017820;28;20030;-83
2021/04/25 07:06:23;;;;;;;2.13;1.00;;;9.10;71.80;;;;;;5022649;28;20026;-83
2021/04/25 07:08:50;;;;;;;1.30;1.05;;;9.20;70.20;;;;;;5026127;28;20466;-75
2021/04/25 07:11:15;;;;;;;3.10;1.00;;;9.00;68.50;;;;;;5017921;28;20028;-78
2021/04/25 07:13:41;;;;;;;3.78;1.23;;;9.00;70.00;;;;;;5019516;28;20029;-76
2021/04/25 07:16:06;;;;;;;3.75;0.90;;;9.20;68.40;;;;;;5024705;28;20037;-76
2021/04/25 07:18:32;;;;;;;0.88;0.73;;;9.20;64.80;;;;;;5025419;28;20030;-76
2021/04/25 07:20:58;;;;;;;1.50;1.00;;;9.20;65.10;;;;;;5025707;28;20492;-79
2021/04/25 07:23:30;;;;;;;3.65;0.98;;;9.30;68.00;;;;;;5023442;28;20033;-75
2021/04/25 07:25:56;;;;;;;2.55;1.00;;;9.30;64.70;;;;;;5014670;28;20796;-75
2021/04/25 07:28:25;;;;;;;1.58;0.88;;;9.30;67.50;;;;;;5021365;28;20085;-75
2021/04/25 07:30:52;;;;;;;2.13;0.85;;;9.40;65.70;;;;;;5016928;28;20029;-76
2021/04/25 07:33:20;;;;;;;0.68;0.68;;;9.30;66.40;;;;;;5026846;28;20036;-79
2021/04/25 07:35:46;;;;;;;3.30;0.68;;;9.30;65.70;;;;;;5023033;28;20064;-78
2021/04/25 07:38:12;;;;;;;1.20;1.00;;;9.40;66.70;;;;;;5026229;28;20052;-76
2021/04/25 07:40:41;;;;;;;3.83;1.95;;;9.40;67.90;;;;;;5024549;28;20369;-76
2021/04/25 07:43:07;;;;;;;2.55;1.23;;;9.40;67.60;;;;;;5027076;28;20022;-78
2021/04/25 07:45:34;;;;;;;4.07;1.33;;;9.40;67.20;;;;;;5022868;28;20031;-79
2021/04/25 07:48:00;;;;;;;1.70;0.80;;;9.40;65.70;;;;;;5022231;28;20040;-83
2021/04/25 07:50:26;;;;;;;3.53;1.00;;;9.40;66.40;;;;;;5019828;28;20140;-76
2021/04/25 07:52:52;;;;;;;2.65;1.30;;;9.40;67.50;;;;;;5026808;28;20030;-77
2021/04/25 07:55:17;;;;;;;2.40;1.02;;;9.50;67.70;;;;;;5016922;28;20435;-76
2021/04/25 07:57:43;;;;;;;1.67;0.80;;;9.50;64.40;;;;;;5023815;28;20044;-77
2021/04/25 08:00:12;;;;;;;1.75;1.00;;;9.50;65.30;;;;;;5018421;28;20105;-76
2021/04/25 08:02:37;;;;;;;1.52;0.70;;;9.50;65.30;;;;;;5021175;28;20037;-78
2021/04/25 08:05:04;;;;;;;1.67;0.95;;;9.50;62.10;;;;;;5021573;28;20033;-76
2021/04/25 08:07:30;;;;;;;2.45;1.10;;;9.50;63.40;;;;;;5023720;28;20083;-79
2021/04/25 08:09:55;;;;;;;2.38;0.85;;;9.50;63.80;;;;;;5022067;28;20022;-86
2021/04/25 08:12:21;;;;;;;4.53;1.00;;;9.60;66.10;;;;;;5018431;28;20109;-77
2021/04/25 08:14:47;;;;;;;3.55;1.00;;;9.40;65.80;;;;;;5020004;28;20017;-77
2021/04/25 08:17:12;;;;;;;1.23;0.68;;;9.50;66.70;;;;;;5021412;28;20025;-82
2021/04/25 08:19:38;;;;;;;11.05;1.30;;;9.30;68.20;;;;;;5018044;28;20045;-84
2021/04/25 08:22:06;;;;;;;2.70;0.60;;;9.30;68.20;;;;;;5023905;28;20040;-84
2021/04/25 08:24:31;;;;;;;1.60;1.13;;;9.20;70.00;;;;;;5025300;28;20030;-83
2021/04/25 08:26:57;;;;;;;1.55;1.00;;;9.30;70.60;;;;;;5011144;28;20044;-84
2021/04/25 08:29:26;;;;;;;3.08;1.13;;;9.40;71.30;;;;;;5021443;28;20155;-84
2021/04/25 08:31:51;;;;;;;1.55;0.68;;;9.50;72.50;;;;;;4998847;28;20032;-76
2021/04/25 08:34:17;;;;;;;1.63;0.90;;;9.50;72.30;;;;;;5016863;28;20025;-75
2021/04/25 08:36:43;;;;;;;1.35;0.85;;;9.60;74.00;;;;;;5025735;28;20383;-74
2021/04/25 08:39:08;;;;;;;1.90;0.93;;;9.60;71.90;;;;;;5013245;28;20104;-75
2021/04/25 08:41:34;;;;;;;3.50;0.80;;;9.50;70.90;;;;;;5021196;28;20025;-74
2021/04/25 08:44:02;;;;;;;1.75;0.88;;;9.40;72.60;;;;;;5013597;28;20038;-74
2021/04/25 08:46:30;;;;;;;1.33;0.80;;;9.50;73.60;;;;;;5019268;28;20228;-75
2021/04/25 08:48:56;;;;;;;7.88;1.02;;;9.70;73.90;;;;;;5013165;28;20515;-74
2021/04/25 08:51:23;;;;;;;2.03;1.00;;;9.90;71.70;;;;;;5019816;28;20046;-74
2021/04/25 08:53:51;;;;;;;1.63;0.70;;;9.90;69.90;;;;;;5017265;28;20252;-77
2021/04/25 08:56:18;;;;;;;1.48;1.10;;;10.00;70.80;;;;;;5019593;28;20029;-78
2021/04/25 08:58:45;;;;;;;1.00;0.80;;;9.90;71.40;;;;;;5016297;28;20025;-77
2021/04/25 09:01:11;;;;;;;1.30;0.93;;;9.70;73.40;;;;;;5022135;28;20033;-77
2021/04/25 09:03:42;;;;;;;1.00;0.63;;;9.30;74.40;;;;;;5024822;28;20111;-77
2021/04/25 09:06:12;;;;;;;0.73;0.73;;;9.00;77.30;;;;;;5021024;28;20034;-78
2021/04/25 09:09:00;;;;;;;1.35;0.90;;;8.90;79.00;;;;;;5023063;28;20511;-76
2021/04/25 09:11:36;;;;;;;4.00;0.98;;;8.90;79.90;;;;;;5012389;28;20025;-76
2021/04/25 09:14:22;;;;;;;0.88;0.60;;;8.90;79.60;;;;;;5026267;28;20037;-77
2021/04/25 09:16:54;;;;;;;1.95;1.05;;;8.90;78.70;;;;;;5028048;28;20029;-76
2021/04/25 09:19:23;;;;;;;;;;;8.80;80.00;;;;;;5013252;28;20112;-75
2021/04/25 09:21:55;;;;;;;3.13;1.00;;;8.80;79.30;;;;;;5014980;28;19913;-81
2021/04/25 09:24:32;;;;;;;4.68;0.85;;;8.80;77.30;;;;;;5019797;28;20218;-78
2021/04/25 09:26:58;;;;;;;2.13;0.90;;;8.80;76.20;;;;;;5024543;28;20542;-73
2021/04/25 09:29:26;;;;;;;3.10;0.82;;;9.00;76.50;;;;;;5024317;28;20033;-72
2021/04/25 09:31:53;;;;;;;1.95;1.00;;;9.00;75.10;;;;;;5015856;28;20057;-72
2021/04/25 09:34:24;;;;;;;1.13;0.90;;;9.00;71.70;;;;;;5017470;28;20467;-72
2021/04/25 09:36:49;;;;;;;5.10;0.90;;;8.90;72.80;;;;;;5023335;28;20064;-73
2021/04/25 09:39:19;;;;;;;1.35;1.00;;;9.00;71.60;;;;;;5020612;28;20053;-72
2021/04/25 09:41:46;;;;;;;0.82;0.70;;;9.20;71.80;;;;;;5025308;28;20091;-73
2021/04/25 09:44:31;;;;;;;1.65;1.48;;;9.40;70.00;;;;;;5022386;28;20108;-73
2021/04/25 09:47:01;;;;;;;5.10;1.00;;;9.60;70.40;;;;;;5017216;28;20040;-73
2021/04/25 09:49:48;;;;;;;3.15;1.40;;;9.90;68.90;;;;;;5021954;28;20476;-78
2021/04/25 09:52:37;;;;;;;0.80;0.70;;;10.10;66.30;;;;;;5009424;28;20038;-71
2021/04/25 09:55:21;;;;;;;2.03;0.88;;;10.20;67.20;;;;;;5012537;28;20484;-72
2021/04/25 09:57:48;;;;;;;1.95;0.80;;;10.40;64.90;;;;;;5009205;28;20034;-74
2021/04/25 10:00:15;;;;;;;1.40;0.75;;;10.60;63.90;;;;;;5014154;28;20450;-72
2021/04/25 10:02:57;;;;;;;1.15;0.90;;;10.80;63.50;;;;;;5022011;28;20029;-71
2021/04/25 10:05:23;;;;;;;1.27;0.90;;;10.80;59.40;;;;;;5012839;28;20114;-71
2021/04/25 10:07:49;;;;;;;3.30;0.65;;;10.90;59.50;;;;;;5026405;28;20034;-72
2021/04/25 10:10:16;;;;;;;2.58;1.00;;;10.90;58.70;;;;;;5021315;28;20026;-71
2021/04/25 10:12:47;;;;;;;6.35;0.70;;;11.10;58.80;;;;;;5015132;28;20030;-72
2021/04/25 10:15:15;;;;;;;1.05;0.70;;;11.20;56.80;;;;;;5011694;28;20057;-71
2021/04/25 10:17:45;;;;;;;1.20;0.75;;;11.30;59.50;;;;;;5015299;28;20030;-71
2021/04/25 10:20:12;;;;;;;1.48;0.77;;;11.50;57.60;;;;;;5015807;28;20125;-71
2021/04/25 10:22:40;;;;;;;1.00;0.82;;;11.60;55.70;;;;;;5011088;28;20041;-71
2021/04/25 10:25:11;;;;;;;1.95;0.93;;;11.70;56.20;;;;;;5020649;28;20034;-71
2021/04/25 10:27:40;;;;;;;2.95;0.75;;;11.70;55.70;;;;;;5011659;28;20036;-72
2021/04/25 10:30:07;;;;;;;2.72;1.33;;;11.90;55.50;;;;;;5013638;28;20037;-71
2021/04/25 10:32:34;;;;;;;3.53;1.23;;;11.80;54.00;;;;;;5012612;28;20022;-71
2021/04/25 10:35:21;;;;;;;1.30;1.10;;;11.70;55.10;;;;;;5028116;28;20052;-71
2021/04/25 10:37:49;;;;;;;1.80;0.88;;;11.70;56.20;;;;;;5020573;28;20030;-71
2021/04/25 10:40:39;;;;;;;1.85;1.00;;;11.90;57.00;;;;;;5004396;28;20472;-72
2021/04/25 10:43:07;;;;;;;1.63;0.60;;;12.00;56.50;;;;;;5019053;28;20121;-71
2021/04/25 10:45:53;;;;;;;1.77;0.80;;;12.20;54.40;;;;;;5025364;28;20026;-71
2021/04/25 10:48:27;;;;;;;0.82;0.80;;;12.70;55.30;;;;;;5013753;28;20052;-71
2021/04/25 10:51:13;;;;;;;2.78;0.68;;;13.00;51.50;;;;;;5016776;28;20041;-71
2021/04/25 10:53:42;;;;;;;0.73;0.60;;;13.50;52.30;;;;;;5031685;28;20488;-71
2021/04/25 10:56:14;;;;;;;0.60;0.60;;;14.00;53.40;;;;;;5027543;28;20033;-71
2021/04/25 10:58:44;;;;;;;1.13;0.60;;;14.30;53.60;;;;;;5019236;28;20054;-71
2021/04/25 11:01:39;;;;;;;6.32;1.10;;;14.70;52.80;;;;;;5017414;28;20088;-71
2021/04/25 11:04:06;;;;;;;1.35;0.88;;;14.50;52.70;;;;;;5011641;28;20140;-71
2021/04/25 11:06:31;;;;;;;0.77;0.70;;;14.60;51.90;;;;;;4997977;28;20100;-72
2021/04/25 11:08:57;;;;;;;2.28;1.10;;;14.90;52.10;;;;;;5028855;28;20430;-72
2021/04/25 11:11:37;;;;;;;0.95;0.77;;;15.20;52.30;;;;;;5025766;28;20026;-73
2021/04/25 11:14:04;;;;;;;1.70;1.02;;;15.40;52.70;;;;;;5023231;28;20022;-73
2021/04/25 11:16:31;;;;;;;2.17;1.23;;;15.40;48.50;;;;;;5018549;28;20029;-73
2021/04/25 11:19:10;;;;;;;2.88;0.90;;;15.10;48.20;;;;;;5028936;28;20028;-73
2021/04/25 11:21:46;;;;;;;1.90;0.70;;;14.70;48.30;;;;;;5014325;28;20030;-73
2021/04/25 11:24:12;;;;;;;0.60;0.60;;;14.50;48.30;;;;;;5012940;28;20519;-73
2021/04/25 11:26:46;;;;;;;2.17;0.80;;;13.90;45.40;;;;;;5017328;28;20026;-71
2021/04/25 11:29:15;;;;;;;3.55;0.80;;;13.60;45.20;;;;;;5017334;28;20021;-71
2021/04/25 11:31:47;;;;;;;0.32;0.32;;;13.40;44.80;;;;;;5024315;28;20030;-72
2021/04/25 11:34:25;;;;;;;1.05;0.70;;;13.50;45.50;;;;;;5025878;28;20017;-72
2021/04/25 11:36:55;;;;;;;1.27;0.50;;;13.40;41.10;;;;;;5027061;28;20037;-73
2021/04/25 11:39:24;;;;;;;0.30;0.30;;;14.30;42.80;;;;;;5024741;28;20025;-76
2021/04/25 11:41:51;;;;;;;1.35;0.50;;;15.90;39.30;;;;;;5025750;28;20088;-76
2021/04/25 11:44:26;;;;;;;5.40;0.70;;;17.10;39.60;;;;;;5024688;28;20029;-76
2021/04/25 11:46:52;;;;;;;0.85;0.35;;;18.20;35.70;;;;;;5022079;28;20384;-71
2021/04/25 11:49:36;;;;;;;1.38;0.40;;;17.60;34.40;;;;;;5024809;28;20551;-72
2021/04/25 11:52:15;;;;;;;1.10;0.57;;;16.40;34.00;;;;;;5013521;28;20131;-72
2021/04/25 11:54:45;;;;;;;0.50;0.43;;;15.20;38.20;;;;;;5016263;28;20053;-72
2021/04/25 11:57:20;;;;;;;0.40;0.22;;;14.40;40.70;;;;;;5022058;28;20064;-71
2021/04/25 12:00:15;;;;;;;1.33;0.40;;;13.60;39.70;;;;;;5009511;28;20041;-72
2021/04/25 12:02:50;;;;;;;1.23;0.38;;;13.30;40.30;;;;;;5025670;28;20540;-72
2021/04/25 12:05:42;;;;;;;0.20;0.20;;;13.20;39.90;;;;;;5022958;28;20037;-72
2021/04/25 12:08:10;;;;;;;0.50;0.40;;;13.40;41.20;;;;;;5019246;28;20689;-72
2021/04/25 12:10:47;;;;;;;0.45;0.32;;;14.20;42.60;;;;;;5021431;28;20615;-72
2021/04/25 12:13:17;;;;;;;0.90;0.32;;;14.70;38.60;;;;;;5018622;28;20113;-73
2021/04/25 12:15:54;;;;;;;3.42;0.60;;;15.80;38.60;;;;;;5028824;28;20033;-76
2021/04/25 12:18:36;;;;;;;0.95;0.25;;;17.50;38.70;;;;;;5025794;28;20033;-74
2021/04/25 12:21:02;;;;;;;;;;;18.80;35.90;;;;;;5019827;28;20097;-72
2021/04/25 12:23:36;;;;;;;1.30;0.60;;;20.30;33.20;;;;;;5025815;28;19956;-78
2021/04/25 12:26:09;;;;;;;0.70;0.45;;;22.60;31.10;;;;;;5011807;28;20026;-73
2021/04/25 12:28:38;;;;;;;1.08;0.32;;;23.80;29.20;;;;;;5018161;28;20140;-74
2021/04/25 12:31:04;;;;;;;0.40;0.30;;;24.50;28.10;;;;;;5027512;28;20048;-80
2021/04/25 12:33:47;;;;;;;3.20;0.43;;;23.20;26.50;;;;;;5027922;28;20029;-72
2021/04/25 12:36:15;;;;;;;0.80;0.60;;;22.00;26.00;;;;;;5018747;28;20033;-72
2021/04/25 12:38:43;;;;;;;0.82;0.55;;;23.00;26.20;;;;;;5027194;28;20091;-73
2021/04/25 12:41:11;;;;;;;0.77;0.40;;;24.30;26.90;;;;;;5002287;28;20081;-73
2021/04/25 12:43:56;;;;;;;0.40;0.30;;;24.90;26.10;;;;;;5021831;28;20025;-77
2021/04/25 12:46:25;;;;;;;0.35;0.20;;;23.60;25.70;;;;;;5015883;28;20042;-75
2021/04/25 12:48:51;;;;;;;0.80;0.40;;;20.70;28.10;;;;;;5021599;28;20590;-74
2021/04/25 12:51:18;;;;;;;0.45;0.30;;;18.90;29.40;;;;;;5024831;28;20049;-72
2021/04/25 12:54:05;;;;;;;1.00;0.47;;;17.70;31.00;;;;;;5024201;28;20033;-74
2021/04/25 12:56:44;;;;;;;1.27;0.75;;;16.80;34.10;;;;;;5018735;28;20432;-71
2021/04/25 12:59:12;;;;;;;0.95;0.45;;;16.20;33.10;;;;;;5025333;28;20125;-72
2021/04/25 13:01:44;;;;;;;0.35;0.32;;;15.70;35.20;;;;;;5023531;28;20091;-71